Patcona II — WDC2170 — position and weather

sailwx.info

Track history (hours):
 
Tides and Currents Weather Stations Pressure Air Temp Water Temp Dewpoint Dewpoint Depression Visibility Wind Speed Wind Dir Waves Ship Positions

Patcona II

Owner: Connolly-Pacific Co, long beach, CA. More information available from US FCC via Universal Licensing System and Coast Guard Vessel Documentation Center.

Last reported at 2017-Oct-16 17:09 UTC. Time now 2017-Oct-18 00:16 UTC.
Position N 33°46' W 118°13'.

Length 25 m; draft 3.5 m.

Type: Towing. MMSI: 366988960.

Date/timePositionNaut miles runAvg speedWind from/ knotsBaromVisibWave heightAir tempDewpointWater temp
2017-Oct-16 17:09N 33°46' W 118°13'0 1.4
2017-Oct-16 17:00N 33°46' W 118°13'3 6.3
2017-Oct-16 16:29N 33°43' W 118°10'0 0.1
2017-Oct-16 16:01N 33°44' W 118°10'1 2.5
2017-Oct-16 15:30N 33°43' W 118°12'2 3.3
2017-Oct-16 14:59N 33°43' W 118°14'  
2017-Oct-13 22:50N 33°46' W 118°13'2 5.7
2017-Oct-13 22:30N 33°44' W 118°14'3 4.1
2017-Oct-13 21:53N 33°44' W 118°11'1 1.2
2017-Oct-13 21:28N 33°43' W 118°11'0 0.1
2017-Oct-13 21:00N 33°43' W 118°10'0 0.1
2017-Oct-13 20:29N 33°44' W 118°11'0 0.1
2017-Oct-13 20:00N 33°43' W 118°11'0 0.1
2017-Oct-13 19:30N 33°44' W 118°11'0 0.1
2017-Oct-13 19:00N 33°43' W 118°11'0 0.3
2017-Oct-13 18:30N 33°44' W 118°10'0 0.7
2017-Oct-13 18:00N 33°43' W 118°11'0 0.0
2017-Oct-13 17:30N 33°43' W 118°11'1 1.4
2017-Oct-13 17:00N 33°44' W 118°12'3 5.3
2017-Oct-13 16:30N 33°46' W 118°13'  
Track history (hours):
 
Tides and Currents Weather Stations Pressure Air Temp Water Temp Dewpoint Dewpoint Depression Visibility Wind Speed Wind Dir Waves Ship Positions

Patcona II

Owner: Connolly-Pacific Co, long beach, CA. More information available from US FCC via Universal Licensing System and Coast Guard Vessel Documentation Center.

Last reported at 2017-Oct-16 17:09 UTC. Time now 2017-Oct-18 00:16 UTC.
Position N 33°46' W 118°13'.

Length 25 m; draft 3.5 m.

Type: Towing. MMSI: 366988960.

Date/timePositionNaut miles runAvg speedWind from/ knotsBaromVisibWave heightAir tempDewpointWater temp
2017-Oct-16 17:09N 33°46' W 118°13'0 1.4
2017-Oct-16 17:00N 33°46' W 118°13'3 6.3
2017-Oct-16 16:29N 33°43' W 118°10'0 0.1
2017-Oct-16 16:01N 33°44' W 118°10'1 2.5
2017-Oct-16 15:30N 33°43' W 118°12'2 3.3
2017-Oct-16 14:59N 33°43' W 118°14'  
2017-Oct-13 22:50N 33°46' W 118°13'2 5.7
2017-Oct-13 22:30N 33°44' W 118°14'3 4.1
2017-Oct-13 21:53N 33°44' W 118°11'1 1.2
2017-Oct-13 21:28N 33°43' W 118°11'0 0.1
2017-Oct-13 21:00N 33°43' W 118°10'0 0.1
2017-Oct-13 20:29N 33°44' W 118°11'0 0.1
2017-Oct-13 20:00N 33°43' W 118°11'0 0.1
2017-Oct-13 19:30N 33°44' W 118°11'0 0.1
2017-Oct-13 19:00N 33°43' W 118°11'0 0.3
2017-Oct-13 18:30N 33°44' W 118°10'0 0.7
2017-Oct-13 18:00N 33°43' W 118°11'0 0.0
2017-Oct-13 17:30N 33°43' W 118°11'1 1.4
2017-Oct-13 17:00N 33°44' W 118°12'3 5.3
2017-Oct-13 16:30N 33°46' W 118°13'  

Dump ship's entire track history